createdAt,value
2022-11-03T00:01:43.000Z,5.85
2022-11-03T00:04:11.832Z,6.80
2022-11-03T00:06:39.087Z,5.97
2022-11-03T00:09:07.507Z,6.95
2022-11-03T00:11:36.108Z,6.75
2022-11-03T00:14:03.491Z,6.35
2022-11-03T00:16:30.534Z,5.95
2022-11-03T00:18:56.919Z,6.38
2022-11-03T00:21:23.482Z,5.35
2022-11-03T00:23:50.326Z,5.82
2022-11-03T00:26:22.150Z,5.90
2022-11-03T00:28:50.846Z,6.13
2022-11-03T00:31:23.475Z,5.13
2022-11-03T00:33:50.801Z,5.80
2022-11-03T00:36:25.354Z,5.85
2022-11-03T00:38:52.244Z,6.45
2022-11-03T00:41:22.786Z,6.40
2022-11-03T00:43:50.511Z,6.47
2022-11-03T00:46:18.390Z,6.95
2022-11-03T00:48:44.834Z,6.78
2022-11-03T00:51:12.789Z,7.45
2022-11-03T00:53:44.343Z,7.28
2022-11-03T00:56:14.154Z,6.38
2022-11-03T00:58:42.107Z,6.50
2022-11-03T01:01:12.403Z,6.47
2022-11-03T01:03:41.707Z,5.83
2022-11-03T01:06:30.433Z,5.72
2022-11-03T01:08:59.099Z,6.15
2022-11-03T01:11:43.668Z,6.15
2022-11-03T01:14:13.637Z,6.38
2022-11-03T01:16:41.022Z,6.70
2022-11-03T01:19:08.104Z,7.03
2022-11-03T01:21:35.026Z,7.55
2022-11-03T01:24:03.075Z,7.57
2022-11-03T01:26:30.066Z,6.88
2022-11-03T01:28:58.902Z,5.72
2022-11-03T01:31:26.464Z,6.32
2022-11-03T01:33:55.151Z,5.43
2022-11-03T01:36:21.790Z,4.95
2022-11-03T01:38:48.537Z,4.40
2022-11-03T01:41:17.774Z,5.82
2022-11-03T01:43:52.025Z,5.90
2022-11-03T01:46:25.200Z,5.25
2022-11-03T01:49:05.352Z,6.70
2022-11-03T01:51:33.914Z,6.18
2022-11-03T01:54:04.062Z,6.50
2022-11-03T01:56:33.684Z,6.30
2022-11-03T01:59:00.761Z,7.47
2022-11-03T02:01:30.907Z,5.68
2022-11-03T02:04:07.607Z,4.77
2022-11-03T02:06:36.357Z,5.28
2022-11-03T02:09:08.755Z,4.18
2022-11-03T02:11:54.834Z,4.47
2022-11-03T02:14:21.716Z,2.90
2022-11-03T02:16:54.461Z,3.28
2022-11-03T02:19:30.521Z,3.58
2022-11-03T02:22:20.118Z,3.83
2022-11-03T02:25:01.955Z,6.03
2022-11-03T02:27:28.482Z,6.32
2022-11-03T02:29:55.321Z,7.53
2022-11-03T02:32:26.682Z,6.03
2022-11-03T02:35:08.684Z,6.40
2022-11-03T02:37:43.530Z,6.45
2022-11-03T02:40:32.795Z,6.05
2022-11-03T02:43:00.929Z,6.40
2022-11-03T02:45:28.345Z,5.80
2022-11-03T02:47:59.005Z,6.20
2022-11-03T02:50:34.163Z,6.38
2022-11-03T02:53:00.983Z,6.28
2022-11-03T02:55:48.643Z,6.03
2022-11-03T02:58:41.876Z,6.68
2022-11-03T03:01:32.631Z,5.57
2022-11-03T03:04:03.557Z,6.75
2022-11-03T03:06:39.252Z,7.57
2022-11-03T03:09:15.549Z,6.63
2022-11-03T03:11:43.488Z,5.45
2022-11-03T03:14:18.450Z,6.40
2022-11-03T03:16:54.884Z,6.40
2022-11-03T03:19:59.135Z,7.07
2022-11-03T03:22:35.296Z,6.72
2022-11-03T03:25:15.787Z,6.53
2022-11-03T03:27:47.293Z,6.95
2022-11-03T03:30:14.198Z,6.55
2022-11-03T03:32:49.608Z,7.90
2022-11-03T03:35:20.594Z,6.95
2022-11-03T03:37:51.014Z,7.55
2022-11-03T03:40:25.165Z,7.23
2022-11-03T03:42:52.679Z,6.55
2022-11-03T03:45:20.176Z,6.88
2022-11-03T03:47:47.470Z,7.13
2022-11-03T03:50:13.984Z,6.95
2022-11-03T03:52:40.426Z,7.25
2022-11-03T03:55:15.621Z,6.80
2022-11-03T03:57:43.072Z,6.97
2022-11-03T04:00:13.037Z,7.07
2022-11-03T04:02:39.722Z,5.93
2022-11-03T04:05:06.509Z,5.75
2022-11-03T04:07:48.246Z,7.03
2022-11-03T04:10:16.422Z,5.82
2022-11-03T04:13:19.310Z,6.80
2022-11-03T04:16:04.057Z,6.78
2022-11-03T04:18:48.824Z,5.70
2022-11-03T04:21:33.699Z,6.88
2022-11-03T04:24:02.976Z,6.05
2022-11-03T04:26:29.453Z,5.50
2022-11-03T04:28:57.249Z,5.45
2022-11-03T04:31:23.823Z,6.05
2022-11-03T04:33:50.910Z,5.78
2022-11-03T04:36:21.261Z,5.47
2022-11-03T04:38:48.856Z,5.50
2022-11-03T04:41:28.503Z,5.50
2022-11-03T04:43:55.583Z,6.18
2022-11-03T04:46:27.890Z,5.70
2022-11-03T04:48:58.394Z,6.22
2022-11-03T04:51:28.002Z,5.78
2022-11-03T04:53:58.513Z,6.05
2022-11-03T04:56:25.770Z,5.82
2022-11-03T04:58:53.617Z,7.15
2022-11-03T05:01:24.499Z,6.28
2022-11-03T05:03:53.888Z,6.60
2022-11-03T05:06:28.561Z,6.38
2022-11-03T05:09:24.708Z,6.40
2022-11-03T05:11:51.189Z,7.57
2022-11-03T05:14:23.676Z,6.43
2022-11-03T05:16:53.508Z,6.43
2022-11-03T05:19:22.441Z,6.85
2022-11-03T05:21:50.374Z,7.43
2022-11-03T05:24:21.055Z,7.20
2022-11-03T05:26:48.809Z,7.35
2022-11-03T05:29:23.820Z,6.97
2022-11-03T05:31:53.626Z,6.88
2022-11-03T05:34:35.116Z,6.82
2022-11-03T05:37:27.039Z,6.38
2022-11-03T05:39:57.485Z,7.30
2022-11-03T05:42:23.830Z,6.60
2022-11-03T05:44:51.642Z,6.78
2022-11-03T05:47:25.886Z,6.97
2022-11-03T05:50:01.803Z,7.22
2022-11-03T05:52:28.681Z,6.70
2022-11-03T05:54:57.663Z,7.07
2022-11-03T05:57:27.706Z,7.05
2022-11-03T05:59:54.674Z,6.90
2022-11-03T06:02:37.468Z,8.70
2022-11-03T06:05:18.357Z,10.60
2022-11-03T06:07:44.987Z,9.90
2022-11-03T06:10:31.212Z,9.68
2022-11-03T06:13:06.119Z,10.07
2022-11-03T06:15:35.259Z,9.80
2022-11-03T06:18:14.492Z,7.57
2022-11-03T06:20:41.544Z,6.70
2022-11-03T06:23:16.560Z,7.13
2022-11-03T06:25:43.398Z,8.15
2022-11-03T06:28:18.266Z,7.05
2022-11-03T06:30:45.908Z,7.43
2022-11-03T06:33:39.281Z,6.65
2022-11-03T06:36:24.709Z,7.57
2022-11-03T06:38:55.610Z,7.78
2022-11-03T06:41:27.374Z,7.35
2022-11-03T06:43:54.264Z,8.77
2022-11-03T06:46:26.087Z,8.32
2022-11-03T06:48:58.388Z,7.40
2022-11-03T06:51:27.625Z,7.15
2022-11-03T06:53:57.524Z,7.28
2022-11-03T06:56:31.458Z,8.45
2022-11-03T06:58:58.395Z,8.93
2022-11-03T07:01:32.702Z,9.73
2022-11-03T07:04:12.898Z,10.52
2022-11-03T07:06:39.403Z,11.30
2022-11-03T07:09:12.962Z,12.05
2022-11-03T07:11:47.488Z,13.90
2022-11-03T07:14:22.910Z,17.65
2022-11-03T07:17:00.378Z,32.00
2022-11-03T07:19:30.701Z,15.43
2022-11-03T07:22:25.447Z,16.93
2022-11-03T07:24:55.244Z,11.35
2022-11-03T07:27:53.738Z,9.30
2022-11-03T07:30:24.411Z,9.32
2022-11-03T07:32:53.676Z,7.30
2022-11-03T07:35:41.675Z,8.23
2022-11-03T07:38:19.482Z,9.40
2022-11-03T07:40:46.319Z,9.43
2022-11-03T07:43:19.942Z,9.13
2022-11-03T07:45:52.085Z,9.07
2022-11-03T07:48:27.815Z,9.48
2022-11-03T07:50:57.197Z,8.82
2022-11-03T07:53:37.151Z,11.25
2022-11-03T07:56:33.844Z,10.35
2022-11-03T07:59:04.600Z,7.97
2022-11-03T08:01:36.616Z,7.68
2022-11-03T08:04:24.612Z,17.05
2022-11-03T08:06:51.723Z,11.90
2022-11-03T08:09:19.050Z,10.85
2022-11-03T08:11:45.842Z,9.77
2022-11-03T08:14:12.732Z,8.32
2022-11-03T08:16:39.352Z,6.82
2022-11-03T08:19:06.256Z,8.43
2022-11-03T08:21:32.709Z,8.50
2022-11-03T08:23:59.154Z,11.90
2022-11-03T08:26:25.900Z,10.68
2022-11-03T08:28:52.335Z,10.00
2022-11-03T08:31:18.961Z,11.93
2022-11-03T08:33:45.351Z,11.10
2022-11-03T08:36:11.972Z,10.40
2022-11-03T08:38:38.817Z,9.88
2022-11-03T08:41:05.481Z,9.30
2022-11-03T08:43:31.924Z,11.73
2022-11-03T08:46:06.645Z,11.95
2022-11-03T08:48:39.974Z,11.32
2022-11-03T08:51:08.250Z,11.00
2022-11-03T08:53:35.323Z,9.68
2022-11-03T08:56:01.740Z,8.73
2022-11-03T08:58:28.142Z,9.55
2022-11-03T09:00:54.539Z,9.73
2022-11-03T09:03:20.954Z,8.93
2022-11-03T09:05:47.401Z,9.90
2022-11-03T09:11:00.186Z,9.55
2022-11-03T09:13:26.570Z,9.48
2022-11-03T09:15:52.987Z,10.45
2022-11-03T09:18:19.390Z,9.85
2022-11-03T09:20:45.850Z,9.85
2022-11-03T09:23:12.250Z,10.15
2022-11-03T09:25:38.689Z,10.40
2022-11-03T09:28:05.871Z,8.75
2022-11-03T09:30:32.538Z,10.10
2022-11-03T09:32:59.088Z,9.20
2022-11-03T09:35:25.496Z,9.88
2022-11-03T09:37:51.881Z,9.15
2022-11-03T09:40:19.415Z,9.82
2022-11-03T09:42:45.829Z,9.68
2022-11-03T09:45:12.351Z,9.52
2022-11-03T09:47:43.719Z,10.40
2022-11-03T09:50:16.669Z,9.85
2022-11-03T09:52:48.777Z,10.25
2022-11-03T09:55:23.797Z,11.75
2022-11-03T09:57:54.419Z,10.18
2022-11-03T10:00:22.997Z,9.20
2022-11-03T10:02:50.431Z,9.02
2022-11-03T10:05:25.491Z,9.13
2022-11-03T10:07:57.579Z,10.60
2022-11-03T10:10:24.538Z,9.20
2022-11-03T10:12:53.178Z,8.32
2022-11-03T10:15:22.552Z,8.43
2022-11-03T10:17:50.581Z,10.77
2022-11-03T10:20:20.093Z,12.63
2022-11-03T10:22:49.378Z,11.40
2022-11-03T10:25:45.824Z,10.93
2022-11-03T10:28:16.959Z,11.25
2022-11-03T10:31:17.013Z,9.77
2022-11-03T10:33:56.036Z,9.88
2022-11-03T10:36:33.976Z,9.70
2022-11-03T10:39:25.685Z,8.98
2022-11-03T10:41:58.396Z,10.13
2022-11-03T10:44:28.050Z,8.93
2022-11-03T10:47:02.876Z,9.48
2022-11-03T10:49:39.289Z,8.80
2022-11-03T10:52:24.864Z,8.65
2022-11-03T10:54:54.133Z,8.70
2022-11-03T10:57:22.544Z,8.98
2022-11-03T10:59:51.242Z,6.53
2022-11-03T11:02:22.186Z,6.70
2022-11-03T11:04:52.445Z,6.65
2022-11-03T11:07:26.685Z,6.20
2022-11-03T11:09:54.300Z,6.25
2022-11-03T11:12:25.100Z,5.90
2022-11-03T11:14:59.770Z,7.72
2022-11-03T11:17:41.159Z,8.70
2022-11-03T11:20:18.749Z,7.82
2022-11-03T11:22:45.675Z,6.65
2022-11-03T11:25:12.074Z,5.50
2022-11-03T11:27:38.420Z,5.90
2022-11-03T11:30:30.621Z,6.25
2022-11-03T11:33:01.331Z,5.78
2022-11-03T11:35:27.654Z,4.63
2022-11-03T11:37:55.385Z,5.25
2022-11-03T11:40:24.771Z,5.22
2022-11-03T11:43:04.234Z,4.68
2022-11-03T11:46:08.475Z,4.75
2022-11-03T11:48:35.386Z,4.80
2022-11-03T11:51:03.738Z,6.32
2022-11-03T11:53:39.572Z,5.85
2022-11-03T11:56:10.927Z,4.97
2022-11-03T11:58:49.165Z,6.82
2022-11-03T12:01:35.911Z,5.90
2022-11-03T12:06:48.430Z,5.20
2022-11-03T12:09:20.682Z,5.95
2022-11-03T12:11:56.384Z,5.90
2022-11-03T12:14:32.476Z,6.07
2022-11-03T12:17:17.695Z,5.95
2022-11-03T12:19:49.996Z,5.32
2022-11-03T12:22:26.058Z,5.45
2022-11-03T12:24:57.198Z,5.68
2022-11-03T12:27:26.803Z,6.20
2022-11-03T12:29:55.068Z,6.22
2022-11-03T12:32:37.125Z,7.32
2022-11-03T12:35:09.043Z,7.68
2022-11-03T12:37:35.951Z,11.23
2022-11-03T12:40:02.596Z,9.63
2022-11-03T12:42:29.007Z,10.60
2022-11-03T12:44:55.873Z,9.90
2022-11-03T12:47:22.255Z,10.80
2022-11-03T12:49:48.796Z,9.35
2022-11-03T12:52:15.337Z,9.13
2022-11-03T12:54:42.377Z,7.72
2022-11-03T12:57:08.942Z,6.50
2022-11-03T12:59:35.374Z,5.75
2022-11-03T13:02:01.864Z,12.98
2022-11-03T13:04:28.335Z,11.05
2022-11-03T13:06:54.754Z,17.30
2022-11-03T13:09:21.451Z,14.20
2022-11-03T13:12:06.218Z,16.38
2022-11-03T13:14:32.599Z,18.30
2022-11-03T13:16:58.977Z,17.83
2022-11-03T13:19:25.800Z,14.38
2022-11-03T13:21:52.161Z,14.95
2022-11-03T13:24:18.545Z,15.85
2022-11-03T13:26:44.919Z,16.13
2022-11-03T13:29:11.436Z,32.80
2022-11-03T13:31:37.878Z,44.22
2022-11-03T13:34:04.317Z,41.47
2022-11-03T13:36:30.796Z,21.63
2022-11-03T13:38:57.316Z,15.35
2022-11-03T13:41:23.679Z,12.25
2022-11-03T13:43:50.085Z,15.95
2022-11-03T13:46:16.442Z,22.38
2022-11-03T13:51:29.441Z,15.65
2022-11-03T13:59:29.018Z,15.43
2022-11-03T14:04:43.145Z,14.07
2022-11-03T14:07:10.421Z,13.30
2022-11-03T14:14:53.393Z,11.88
2022-11-03T14:17:19.774Z,12.05
2022-11-03T14:19:50.381Z,10.98
2022-11-03T14:22:19.668Z,10.60
2022-11-03T14:24:46.200Z,8.40
2022-11-03T14:27:13.604Z,7.97
2022-11-03T14:29:39.991Z,7.65
2022-11-03T14:32:06.436Z,6.72
2022-11-03T14:34:32.978Z,7.70
2022-11-03T14:36:59.548Z,8.75
2022-11-03T14:39:26.299Z,8.90
